createdAt,value
2023-03-20T00:01:35.965Z,96.00
2023-03-20T00:11:36.035Z,96.10
2023-03-20T00:21:35.495Z,96.00
2023-03-20T00:31:34.506Z,95.80
2023-03-20T00:41:33.271Z,95.60
2023-03-20T00:51:32.392Z,96.00
2023-03-20T01:01:31.586Z,96.00
2023-03-20T01:11:30.928Z,95.50
2023-03-20T01:21:33.617Z,95.20
2023-03-20T01:31:32.729Z,95.30
2023-03-20T01:41:32.767Z,95.30
2023-03-20T01:51:34.539Z,95.20
2023-03-20T02:01:36.089Z,95.00
2023-03-20T02:11:35.824Z,94.90
2023-03-20T02:21:35.782Z,94.90
2023-03-20T02:31:34.638Z,94.60
2023-03-20T02:41:33.823Z,94.80
2023-03-20T02:51:32.646Z,94.60
2023-03-20T03:01:33.238Z,94.50
2023-03-20T03:11:32.700Z,94.50
2023-03-20T03:21:31.625Z,94.80
2023-03-20T03:31:30.709Z,94.90
2023-03-20T03:41:30.224Z,94.90
2023-03-20T03:51:34.033Z,94.60
2023-03-20T04:01:35.379Z,94.50
2023-03-20T04:11:36.348Z,94.60
2023-03-20T04:21:35.950Z,94.80
2023-03-20T04:31:43.746Z,95.00
2023-03-20T04:41:42.954Z,94.90
2023-03-20T04:51:44.085Z,95.10
2023-03-20T05:01:43.577Z,94.80
2023-03-20T05:11:44.243Z,95.20
2023-03-20T05:21:45.636Z,95.10
2023-03-20T05:31:49.124Z,95.10
2023-03-20T05:41:53.117Z,94.90
2023-03-20T05:52:06.251Z,95.00
2023-03-20T06:02:07.385Z,95.10
2023-03-20T06:12:06.600Z,95.10
2023-03-20T06:22:06.164Z,95.10
2023-03-20T06:32:06.836Z,95.20
2023-03-20T06:42:06.014Z,94.70
2023-03-20T06:52:06.964Z,94.70
2023-03-20T07:02:07.801Z,94.50
2023-03-20T07:12:07.023Z,94.30
2023-03-20T07:22:08.989Z,94.00
2023-03-20T07:32:09.688Z,93.80
2023-03-20T07:42:19.298Z,93.30
2023-03-20T07:52:18.403Z,92.50
2023-03-20T08:02:17.446Z,92.00
2023-03-20T08:12:17.049Z,91.70
2023-03-20T08:22:16.477Z,91.10
2023-03-20T08:32:15.808Z,90.30
2023-03-20T08:42:14.383Z,88.30
2023-03-20T08:52:13.503Z,87.80
2023-03-20T09:02:12.589Z,85.90
2023-03-20T09:12:11.678Z,82.90
2023-03-20T09:22:10.835Z,82.10
2023-03-20T09:32:09.486Z,78.40
2023-03-20T09:42:08.541Z,78.20
2023-03-20T09:52:07.388Z,78.50
2023-03-20T10:02:06.756Z,76.90
2023-03-20T10:12:07.541Z,75.50
2023-03-20T10:22:06.434Z,72.90
2023-03-20T10:32:05.494Z,70.40
2023-03-20T10:42:04.573Z,71.00
2023-03-20T10:52:04.263Z,69.90
2023-03-20T11:02:03.546Z,67.20
2023-03-20T11:12:02.531Z,68.00
2023-03-20T11:22:01.737Z,67.60
2023-03-20T11:32:00.973Z,67.00
2023-03-20T11:41:59.646Z,71.20
2023-03-20T11:51:58.684Z,73.00
2023-03-20T12:01:57.550Z,73.20
2023-03-20T12:11:58.469Z,71.10
2023-03-20T12:21:57.673Z,71.10
2023-03-20T12:31:56.531Z,72.80
2023-03-20T12:41:55.544Z,72.70
2023-03-20T12:51:54.616Z,74.90
2023-03-20T13:01:53.753Z,77.20
2023-03-20T13:11:52.713Z,77.90
2023-03-20T13:21:53.561Z,76.80
2023-03-20T13:31:52.683Z,74.40
2023-03-20T13:41:51.875Z,71.60
2023-03-20T13:51:52.590Z,72.50
2023-03-20T14:01:51.747Z,71.30
2023-03-20T14:11:50.684Z,71.80
2023-03-20T14:21:49.774Z,71.90
2023-03-20T14:31:48.663Z,71.50
2023-03-20T14:41:47.719Z,72.50
2023-03-20T14:51:47.174Z,73.30
2023-03-20T15:01:46.016Z,73.60
2023-03-20T15:11:44.886Z,74.20
2023-03-20T15:21:43.983Z,73.90
2023-03-20T15:31:42.853Z,74.30
2023-03-20T15:41:41.882Z,74.50
2023-03-20T15:51:41.231Z,75.00
2023-03-20T16:01:40.112Z,74.50
2023-03-20T16:11:38.833Z,74.80
2023-03-20T16:21:37.870Z,75.10
2023-03-20T16:31:36.864Z,75.60
2023-03-20T16:41:36.003Z,76.10
2023-03-20T16:51:34.817Z,76.90
2023-03-20T17:01:34.239Z,76.80
2023-03-20T17:11:32.908Z,77.40
2023-03-20T17:21:31.985Z,77.50
2023-03-20T17:31:31.475Z,77.50
2023-03-20T17:41:30.852Z,77.80
2023-03-20T17:51:31.236Z,78.10
2023-03-20T18:01:32.680Z,78.20
2023-03-20T18:11:31.811Z,78.20
2023-03-20T18:21:30.825Z,78.30
2023-03-20T18:31:29.870Z,78.30
2023-03-20T18:41:28.816Z,78.10
2023-03-20T18:51:27.871Z,76.80
2023-03-20T19:01:26.980Z,77.30
2023-03-20T19:11:25.926Z,77.10
2023-03-20T19:21:25.664Z,77.00
2023-03-20T19:31:25.233Z,76.50
2023-03-20T19:41:23.864Z,76.10
2023-03-20T19:51:22.873Z,76.30
2023-03-20T20:01:22.773Z,76.60
2023-03-20T20:11:21.899Z,77.00
2023-03-20T20:31:22.049Z,77.00
2023-03-20T20:41:20.998Z,76.60
2023-03-20T20:51:21.791Z,76.60
2023-03-20T21:01:21.013Z,76.60
2023-03-20T21:11:20.356Z,76.50
2023-03-20T21:21:19.098Z,76.50
2023-03-20T21:31:25.628Z,76.40
2023-03-20T21:41:18.833Z,76.40
2023-03-20T21:52:24.609Z,76.50
2023-03-20T22:01:53.937Z,76.40
2023-03-20T22:12:09.637Z,76.60
2023-03-20T22:51:32.638Z,76.90
2023-03-20T23:01:25.458Z,77.10
2023-03-20T23:11:24.182Z,77.50
2023-03-20T23:21:22.879Z,77.70
2023-03-20T23:31:22.076Z,78.00
2023-03-20T23:41:32.176Z,78.30
2023-03-20T23:51:22.311Z,78.50
